SVMG/PMV METAR and TAF weather

Enter ICAO airport designator
Station Type Date Time Source
SVMG METAR 2019/07/20 05:00 UTC NOAA

SVMG 200500Z /////KT 9999 FEW010 25/24 Q1015 NOSIG


Station Type Date Time Source
SVMG Decoded METAR 2019/07/20 05:00 UTC NOAA

Margarita / Del Carib, Venezuela (SVMG) 10-55N 063-59W
Jul 20, 2019 - 01:00 AM EDT / 2019.07.20 0500 UTC
Visibility: greater than 7 mile(s):0
Sky conditions: mostly clear
Temperature: 77 F (25 C)
Dew Point: 75 F (24 C)
Relative Humidity: 94%
Pressure (altimeter): 29.97 in. Hg (1015 hPa)
ob: SVMG 200500Z /////KT 9999 FEW010 25/24 Q1015 NOSIG
cycle: 5

Station Type Date Time Source
SVMG TAF 2019/07/20 00:00 UTC NOAA

TAF SVMG 200400Z 2100/2200 08006KT 9999 FEW010 TX33/18Z TN25/08Z
BECMG 1800/1804 27011KT 9999 SCT010

Example: see airport list